Time;durP1;ratioP1;P1;durP2;ratioP2;P2;SDS_P1;SDS_P2;PMS_P1;PMS_P2;Temp;Humidity;BMP_temperature;BMP_pressure;BME280_temperature;BME280_humidity;BME280_pressure;Samples;Min_cycle;Max_cycle;Signal;HPM_P1;HPM_P2
2021/10/22 00:01:52;;;;;;;8.95;2.25;;;;;;;7.69;66.78;97973.94;5104397;28;20027;-72
2021/10/22 00:04:18;;;;;;;10.73;1.90;;;;;;;7.58;67.41;97969.16;5103874;28;20411;-71
2021/10/22 00:06:43;;;;;;;13.60;2.83;;;;;;;7.54;67.07;97977.94;5103879;28;20052;-72
2021/10/22 00:09:08;;;;;;;9.70;2.17;;;;;;;7.43;66.45;97979.13;5104116;28;20038;-71
2021/10/22 00:11:35;;;;;;;11.85;2.38;;;;;;;7.39;66.02;97976.72;5104223;28;20028;-72
2021/10/22 00:14:00;;;;;;;11.10;2.10;;;;;;;7.32;66.44;97983.81;5104165;28;20046;-73
2021/10/22 00:16:26;;;;;;;11.65;2.72;;;;;;;7.27;66.47;97989.13;5103599;28;20439;-71
2021/10/22 00:18:52;;;;;;;10.60;1.85;;;;;;;7.20;67.63;97979.94;5119444;28;20111;-73
2021/10/22 00:21:17;;;;;;;3.70;1.88;;;;;;;7.27;66.88;97999.47;5103934;28;20044;-72
2021/10/22 00:23:43;;;;;;;11.05;2.78;;;;;;;7.24;67.64;97994.41;5103187;28;20072;-71
2021/10/22 00:26:10;;;;;;;9.68;1.80;;;;;;;7.21;66.79;98002.25;5103904;28;20095;-72
2021/10/22 00:28:35;;;;;;;9.18;1.70;;;;;;;7.21;66.74;98014.31;5104137;28;20084;-71
2021/10/22 00:31:01;;;;;;;8.60;1.50;;;;;;;7.22;67.46;98005.69;5103820;28;20043;-70
2021/10/22 00:33:26;;;;;;;11.25;1.92;;;;;;;7.35;66.18;98011.28;5103389;28;20266;-72
2021/10/22 00:35:51;;;;;;;8.40;1.67;;;;;;;7.31;67.73;98006.22;5103597;28;20026;-69
2021/10/22 00:38:17;;;;;;;6.43;1.40;;;;;;;7.36;66.17;98010.38;5103745;28;20084;-71
2021/10/22 00:40:45;;;;;;;13.25;1.70;;;;;;;7.37;67.04;98017.22;5103764;28;20085;-71
2021/10/22 00:43:13;;;;;;;10.77;2.10;;;;;;;7.30;67.13;98014.03;5103345;28;20024;-71
2021/10/22 00:45:39;;;;;;;13.35;2.65;;;;;;;7.35;67.63;98025.00;5103925;28;20105;-72
2021/10/22 00:48:04;;;;;;;10.95;1.60;;;;;;;7.32;68.40;98019.97;5103313;28;20057;-71
2021/10/22 00:50:29;;;;;;;12.02;2.50;;;;;;;7.26;67.24;98004.69;5103592;28;20379;-72
2021/10/22 00:52:55;;;;;;;14.40;2.20;;;;;;;7.28;67.46;98008.91;5103395;28;20027;-72
2021/10/22 00:55:21;;;;;;;8.27;1.88;;;;;;;7.26;67.51;98009.84;5103542;28;20024;-72
2021/10/22 00:57:46;;;;;;;7.85;2.38;;;;;;;7.20;67.50;98005.75;5103298;28;20020;-73
2021/10/22 01:00:12;;;;;;;10.02;1.65;;;;;;;7.28;67.52;98008.06;5103649;28;20030;-72
2021/10/22 01:02:39;;;;;;;9.60;1.88;;;;;;;7.32;67.20;98022.53;5103405;28;20028;-71
2021/10/22 01:05:09;;;;;;;11.15;2.45;;;;;;;7.31;67.94;98010.53;5103539;28;20079;-71
2021/10/22 01:07:38;;;;;;;15.48;3.13;;;;;;;7.35;67.11;98014.69;5103267;28;20024;-72
2021/10/22 01:10:04;;;;;;;12.75;2.10;;;;;;;7.38;67.99;98024.09;5103370;28;20150;-71
2021/10/22 01:12:31;;;;;;;6.38;1.42;;;;;;;7.36;67.55;98020.72;5103316;28;20074;-72
2021/10/22 01:14:56;;;;;;;15.95;2.38;;;;;;;7.29;67.77;98010.59;5103610;28;20046;-71
2021/10/22 01:17:36;;;;;;;15.13;2.42;;;;;;;7.30;66.13;98021.78;5118745;28;20028;-73
2021/10/22 01:20:03;;;;;;;9.50;1.67;;;;;;;7.35;66.57;98016.44;5103700;28;20024;-72
2021/10/22 01:22:32;;;;;;;12.02;1.70;;;;;;;7.38;67.37;98006.84;5103221;28;20028;-71
2021/10/22 01:24:57;;;;;;;9.15;2.05;;;;;;;7.29;67.79;98000.25;5103291;28;20050;-71
2021/10/22 01:27:24;;;;;;;10.65;2.67;;;;;;;7.29;67.56;98010.59;5103322;28;20063;-71
2021/10/22 01:29:49;;;;;;;9.15;1.88;;;;;;;7.31;67.83;98000.22;5103290;28;20035;-71
2021/10/22 01:32:15;;;;;;;11.48;2.20;;;;;;;7.26;67.13;98010.69;5103346;28;20020;-72
2021/10/22 01:34:40;;;;;;;16.00;3.47;;;;;;;7.25;68.22;98001.25;5103075;28;20062;-71
2021/10/22 01:37:05;;;;;;;9.82;2.22;;;;;;;7.29;68.55;98014.91;5087943;28;20020;-71
2021/10/22 01:39:31;;;;;;;8.63;1.73;;;;;;;7.31;68.15;98013.13;5107059;28;20102;-72
2021/10/22 01:41:56;;;;;;;10.38;2.65;;;;;;;7.33;67.35;98013.91;5106960;28;20020;-72
2021/10/22 01:44:23;;;;;;;5.40;1.48;;;;;;;7.31;67.03;98013.13;5106757;28;20049;-71
2021/10/22 01:46:50;;;;;;;5.78;1.23;;;;;;;7.31;68.17;98007.97;5106734;28;20050;-73
2021/10/22 01:49:15;;;;;;;12.13;1.60;;;;;;;7.38;68.08;98024.09;5106368;28;20028;-71
2021/10/22 01:51:41;;;;;;;7.32;2.05;;;;;;;7.29;68.54;98007.16;5106618;28;20121;-71
2021/10/22 01:54:06;;;;;;;16.65;2.47;;;;;;;7.42;68.29;98026.50;5106562;28;20031;-72
2021/10/22 01:56:32;;;;;;;6.65;1.52;;;;;;;7.53;66.68;98012.38;5106688;28;20016;-71
2021/10/22 01:58:57;;;;;;;13.40;1.95;;;;;;;7.43;67.67;98012.69;5106750;28;20046;-72
2021/10/22 02:01:22;;;;;;;7.90;1.70;;;;;;;7.43;66.61;98012.69;5106372;28;20066;-72
2021/10/22 02:03:48;;;;;;;7.90;1.92;;;;;;;7.53;66.63;98017.53;5106256;28;20478;-70
2021/10/22 02:06:13;;;;;;;9.65;1.63;;;;;;;7.53;67.11;98020.13;5087909;28;20024;-71
2021/10/22 02:08:38;;;;;;;10.13;2.13;;;;;;;7.50;67.90;98015.06;5105952;28;20107;-72
2021/10/22 02:11:04;;;;;;;11.55;1.75;;;;;;;7.49;65.84;98021.97;5106013;28;20027;-71
2021/10/22 02:13:29;;;;;;;8.18;1.95;;;;;;;7.47;66.16;98018.59;5106013;28;20016;-73
2021/10/22 02:15:55;;;;;;;10.48;1.88;;;;;;;7.52;66.67;98026.19;5106086;28;20016;-72
2021/10/22 02:18:21;;;;;;;5.45;1.10;;;;;;;7.54;67.82;98024.41;5105727;28;20083;-72
2021/10/22 02:20:46;;;;;;;7.72;1.52;;;;;;;7.48;68.34;98025.44;5106274;28;20024;-72
2021/10/22 02:23:16;;;;;;;10.02;2.28;;;;;;;7.42;66.71;98026.50;5087590;28;20024;-72
2021/10/22 02:25:42;;;;;;;13.40;2.15;;;;;;;7.48;67.65;98015.13;5087622;28;20098;-72
2021/10/22 02:28:07;;;;;;;8.88;1.50;;;;;;;7.49;68.24;98011.63;5105773;28;20028;-71
2021/10/22 02:30:32;;;;;;;7.82;1.10;;;;;;;7.46;68.27;98013.50;5105780;28;20020;-71
2021/10/22 02:32:58;;;;;;;11.20;1.80;;;;;;;7.42;67.70;98018.75;5105960;28;20024;-71
2021/10/22 02:35:23;;;;;;;6.95;2.08;;;;;;;7.42;67.86;98018.75;5105823;28;20031;-70
2021/10/22 02:37:48;;;;;;;5.35;1.20;;;;;;;7.44;67.90;98014.38;5105709;28;20410;-70
2021/10/22 02:40:15;;;;;;;12.30;3.13;;;;;;;7.38;68.43;98024.91;5105796;28;20032;-71
2021/10/22 02:42:41;;;;;;;9.50;1.88;;;;;;;7.32;69.52;98023.38;5105651;28;20024;-71
2021/10/22 02:45:07;;;;;;;8.80;2.00;;;;;;;7.27;69.63;98021.84;5105667;28;20034;-70
2021/10/22 02:47:32;;;;;;;8.82;1.63;;;;;;;7.24;69.00;98027.97;5104621;28;20020;-71
2021/10/22 02:49:58;;;;;;;6.75;1.60;;;;;;;7.18;69.01;98023.84;5105746;28;20024;-71
2021/10/22 02:52:23;;;;;;;8.93;1.65;;;;;;;7.15;67.59;98020.53;5105470;28;20032;-71
2021/10/22 02:54:48;;;;;;;3.60;1.20;;;;;;;7.09;68.92;98019.00;5105529;28;20031;-71
2021/10/22 02:57:14;;;;;;;7.00;1.20;;;;;;;7.11;68.96;98012.03;5105343;28;20035;-71
2021/10/22 02:59:39;;;;;;;13.07;1.83;;;;;;;7.17;69.25;98031.66;5105564;28;20035;-71
2021/10/22 03:02:04;;;;;;;12.15;3.42;;;;;;;7.13;69.03;98033.47;5105275;28;20020;-72
2021/10/22 03:04:30;;;;;;;8.65;1.48;;;;;;;7.19;69.54;98019.53;5105030;28;20045;-71
2021/10/22 03:06:55;;;;;;;8.05;1.55;;;;;;;7.02;69.66;97995.13;5086838;28;20034;-71
2021/10/22 03:09:20;;;;;;;6.53;1.55;;;;;;;7.21;69.68;98011.72;5105129;28;20057;-71
2021/10/22 03:11:46;;;;;;;8.50;1.30;;;;;;;7.28;68.89;98003.75;5105137;28;20023;-71
2021/10/22 03:14:11;;;;;;;10.68;1.50;;;;;;;7.23;69.35;98015.97;5105221;28;20027;-71
2021/10/22 03:16:37;;;;;;;9.95;2.00;;;;;;;7.31;69.64;98021.72;5104901;28;20073;-71
2021/10/22 03:19:02;;;;;;;7.40;2.17;;;;;;;7.17;70.60;98008.44;5104926;28;20087;-71
2021/10/22 03:21:27;;;;;;;5.75;2.03;;;;;;;7.15;71.10;98007.63;5104928;28;20055;-71
2021/10/22 03:23:55;;;;;;;12.02;2.35;;;;;;;7.12;70.74;98003.41;5104953;28;20048;-72
2021/10/22 03:26:22;;;;;;;7.75;1.63;;;;;;;7.16;71.18;98004.13;5104874;28;20556;-71
2021/10/22 03:28:47;;;;;;;10.18;1.90;;;;;;;7.16;71.69;98027.38;5104960;28;20073;-72
2021/10/22 03:31:12;;;;;;;7.22;1.52;;;;;;;6.97;70.42;97958.31;5104735;28;20032;-70
2021/10/22 03:33:37;;;;;;;9.70;1.27;;;;;;;7.04;71.17;97989.91;5104474;28;20088;-74
2021/10/22 03:36:04;;;;;;;6.43;1.60;;;;;;;7.22;70.86;98019.41;5104671;28;20020;-71
2021/10/22 03:38:29;;;;;;;9.43;1.52;;;;;;;7.19;71.21;98014.34;5104248;28;20046;-71
2021/10/22 03:40:55;;;;;;;12.20;1.65;;;;;;;7.15;70.60;98005.03;5104379;28;20024;-75
2021/10/22 03:43:20;;;;;;;9.50;1.48;;;;;;;7.25;69.97;98013.31;5104497;28;20049;-71
2021/10/22 03:45:47;;;;;;;12.90;1.40;;;;;;;7.29;69.56;98022.63;5104382;28;20035;-73
2021/10/22 03:48:12;;;;;;;6.15;1.50;;;;;;;7.20;70.21;98016.06;5104122;28;20035;-72
2021/10/22 03:50:38;;;;;;;5.90;1.30;;;;;;;7.15;69.21;98018.78;5104296;28;20024;-73
2021/10/22 03:53:04;;;;;;;8.27;1.05;;;;;;;7.10;68.47;98015.50;5104405;28;20432;-72
2021/10/22 03:55:29;;;;;;;8.73;1.33;;;;;;;7.06;68.22;98003.63;5104410;28;20039;-72
2021/10/22 03:57:54;;;;;;;5.03;1.50;;;;;;;6.95;69.61;97985.88;5103678;28;20032;-72
2021/10/22 04:00:20;;;;;;;11.27;1.50;;;;;;;7.10;70.49;98015.50;5104222;28;20069;-71
2021/10/22 04:02:45;;;;;;;9.63;1.52;;;;;;;7.08;71.27;98012.13;5085834;28;20031;-72
2021/10/22 04:05:11;;;;;;;7.18;1.77;;;;;;;7.00;70.92;98004.66;5104120;28;20051;-72
2021/10/22 04:07:36;;;;;;;8.32;1.42;;;;;;;6.99;71.73;98008.13;5103909;28;20024;-74
2021/10/22 04:10:04;;;;;;;6.13;1.30;;;;;;;7.02;71.06;97997.72;5104103;28;20028;-73
2021/10/22 04:12:30;;;;;;;10.82;1.50;;;;;;;7.03;70.89;98009.72;5085522;28;20020;-72
2021/10/22 04:14:55;;;;;;;10.07;1.35;;;;;;;7.00;70.99;98008.97;5104054;28;20027;-74
2021/10/22 04:17:20;;;;;;;7.30;1.10;;;;;;;6.94;71.00;98004.84;5103833;28;20020;-71
2021/10/22 04:19:46;;;;;;;11.73;1.80;;;;;;;7.03;71.47;98019.16;5104080;28;20095;-73
2021/10/22 04:22:13;;;;;;;5.43;1.63;;;;;;;7.06;70.96;98014.75;5104052;28;20024;-77
2021/10/22 04:24:38;;;;;;;13.40;1.83;;;;;;;7.01;72.00;98016.66;5103700;28;20073;-68
2021/10/22 04:27:04;;;;;;;7.00;1.60;;;;;;;7.00;71.83;98019.28;5103878;28;20092;-68
2021/10/22 04:29:32;;;;;;;12.25;1.52;;;;;;;6.93;71.13;98011.72;5103956;28;20039;-73
2021/10/22 04:31:58;;;;;;;9.70;2.20;;;;;;;6.93;72.83;97998.84;5103734;28;20047;-72
2021/10/22 04:34:26;;;;;;;6.05;1.27;;;;;;;6.88;72.26;98000.75;5103662;28;20439;-74
2021/10/22 04:36:51;;;;;;;9.20;1.75;;;;;;;6.89;71.95;97996.41;5103931;28;20012;-73
2021/10/22 04:42:01;;;;;;;5.10;1.08;;;;;;;6.88;71.67;98005.91;5104050;28;20058;-73
2021/10/22 04:44:27;;;;;;;8.40;1.45;;;;;;;6.85;70.98;98000.84;5103853;28;20017;-74
2021/10/22 04:46:53;;;;;;;5.95;1.92;;;;;;;6.87;72.62;98003.38;5103324;28;20036;-74
2021/10/22 04:49:18;;;;;;;9.00;1.67;;;;;;;6.91;73.56;98015.28;5103434;28;20031;-74
2021/10/22 04:51:43;;;;;;;14.85;2.75;;;;;;;6.76;72.81;98001.97;5103856;28;20028;-74
2021/10/22 04:54:09;;;;;;;10.95;1.50;;;;;;;6.81;74.10;98006.97;5103603;28;20024;-73
2021/10/22 04:56:34;;;;;;;7.50;1.23;;;;;;;6.72;74.27;97991.78;5103410;28;20040;-73
2021/10/22 04:58:59;;;;;;;6.40;1.15;;;;;;;6.90;74.68;98018.75;5119483;28;20024;-73
2021/10/22 05:01:25;;;;;;;11.75;1.30;;;;;;;6.83;74.86;98007.78;5103704;28;20035;-73
2021/10/22 05:03:50;;;;;;;9.00;1.50;;;;;;;6.75;74.37;98005.44;5118870;28;20063;-76
2021/10/22 05:06:15;;;;;;;8.18;1.55;;;;;;;6.77;74.75;98002.81;5103435;28;20032;-74
2021/10/22 05:08:41;;;;;;;11.73;2.00;;;;;;;6.71;73.71;97993.53;5103289;28;20024;-75
2021/10/22 05:11:06;;;;;;;6.13;1.40;;;;;;;6.75;73.97;98004.59;5106632;28;20043;-72
2021/10/22 05:13:32;;;;;;;7.65;1.30;;;;;;;6.72;73.21;98013.28;5107446;28;20394;-73
2021/10/22 05:15:57;;;;;;;6.05;1.35;;;;;;;6.74;73.61;98003.75;5123068;28;20344;-73
2021/10/22 05:18:22;;;;;;;13.40;3.72;;;;;;;6.72;73.58;97996.94;5106872;28;20464;-72
2021/10/22 05:20:48;;;;;;;9.90;1.85;;;;;;;6.77;73.65;97997.66;5088584;28;20020;-72
2021/10/22 05:23:14;;;;;;;10.02;1.58;;;;;;;6.74;73.40;98000.34;5106472;28;20050;-73
2021/10/22 05:25:40;;;;;;;10.70;2.60;;;;;;;6.81;73.01;98013.00;5107268;28;20016;-72
2021/10/22 05:28:05;;;;;;;5.97;1.40;;;;;;;6.82;73.27;98013.84;5107603;28;20020;-72
2021/10/22 05:30:31;;;;;;;13.23;1.95;;;;;;;6.86;72.36;98023.16;5107346;28;20031;-72
2021/10/22 05:32:56;;;;;;;8.80;1.80;;;;;;;6.91;73.14;98018.69;5107023;28;20024;-72
2021/10/22 05:35:21;;;;;;;6.95;1.80;;;;;;;6.99;74.24;98022.75;5107295;28;20034;-73
2021/10/22 05:37:47;;;;;;;6.28;1.42;;;;;;;7.06;73.40;98026.84;5106718;28;20026;-75
2021/10/22 05:40:12;;;;;;;6.97;1.77;;;;;;;7.00;71.77;98027.00;5106985;28;20110;-75
2021/10/22 05:42:37;;;;;;;6.30;1.45;;;;;;;7.02;71.16;98018.34;5122324;28;20066;-75
2021/10/22 05:45:04;;;;;;;9.73;1.95;;;;;;;7.07;71.78;98026.78;5106779;28;20024;-72
2021/10/22 05:47:30;;;;;;;3.25;0.88;;;;;;;7.11;72.92;98027.50;5106607;28;20182;-74
2021/10/22 05:49:55;;;;;;;8.05;1.27;;;;;;;7.13;73.17;98033.47;5106288;28;20077;-74
2021/10/22 05:52:21;;;;;;;9.77;1.95;;;;;;;7.17;73.21;98026.50;5106602;28;20016;-74
2021/10/22 05:54:47;;;;;;;8.10;1.48;;;;;;;7.19;73.43;98029.84;5106822;28;20027;-74
2021/10/22 05:57:12;;;;;;;6.63;1.25;;;;;;;7.21;74.16;98038.38;5106335;28;20020;-73
2021/10/22 05:59:37;;;;;;;5.63;1.75;;;;;;;7.22;73.66;98037.47;5106133;28;20020;-74
2021/10/22 06:02:03;;;;;;;10.10;1.65;;;;;;;7.19;74.63;98035.84;5106613;28;20085;-73
2021/10/22 06:04:28;;;;;;;4.82;1.20;;;;;;;7.25;74.38;98049.47;5088036;28;20058;-74
2021/10/22 06:06:54;;;;;;;6.10;1.40;;;;;;;7.24;75.13;98051.19;5106223;28;20020;-74
2021/10/22 06:09:19;;;;;;;5.05;0.98;;;;;;;7.17;73.92;98044.56;5106357;28;20012;-74
2021/10/22 06:11:45;;;;;;;6.95;1.15;;;;;;;7.09;73.19;98031.06;5106278;28;20035;-73
2021/10/22 06:14:10;;;;;;;6.25;1.10;;;;;;;7.18;72.90;98049.66;5121834;28;20016;-75
2021/10/22 06:16:35;;;;;;;8.50;1.60;;;;;;;7.21;73.66;98050.44;5106428;28;20027;-74
2021/10/22 06:19:04;;;;;;;11.25;1.83;;;;;;;7.17;73.00;98050.53;5105809;28;20028;-73
2021/10/22 06:24:01;;;;;;;6.60;1.27;;;;;;;7.21;73.73;98060.75;5106018;28;20067;-72
2021/10/22 06:26:32;;;;;;;7.55;1.40;;;;;;;7.17;73.81;98060.84;5106061;28;20158;-73
2021/10/22 06:28:59;;;;;;;8.52;1.20;;;;;;;7.15;73.39;98054.06;5106144;28;20038;-74
2021/10/22 06:31:25;;;;;;;8.57;1.38;;;;;;;7.08;73.14;98053.41;5106075;28;20096;-74
2021/10/22 06:33:51;;;;;;;8.85;1.88;;;;;;;7.11;73.24;98058.47;5105880;28;20027;-73
2021/10/22 06:36:17;;;;;;;5.43;1.70;;;;;;;7.16;73.80;98063.50;5105042;28;20504;-73
2021/10/22 06:38:42;;;;;;;7.53;1.48;;;;;;;7.12;72.63;98080.81;5105721;28;20031;-73
2021/10/22 06:41:08;;;;;;;6.28;1.33;;;;;;;7.12;73.36;98083.41;5105706;28;20024;-73
2021/10/22 06:43:35;;;;;;;12.10;1.48;;;;;;;7.08;73.62;98079.22;5105890;28;20063;-73
2021/10/22 06:46:00;;;;;;;7.45;1.30;;;;;;;7.11;74.38;98083.47;5105673;28;20032;-73
2021/10/22 06:48:26;;;;;;;5.95;1.67;;;;;;;6.99;73.92;98072.63;5086937;28;20023;-72
2021/10/22 06:50:52;;;;;;;6.38;1.38;;;;;;;6.95;74.35;98055.53;5121224;28;20329;-73
2021/10/22 06:53:17;;;;;;;6.53;1.20;;;;;;;7.03;74.36;98066.47;5087359;28;20028;-73
2021/10/22 06:55:43;;;;;;;7.50;1.48;;;;;;;7.19;74.76;98084.88;5087221;28;20031;-73
2021/10/22 06:58:08;;;;;;;8.13;1.40;;;;;;;7.29;74.75;98085.44;5105395;28;20024;-73
2021/10/22 07:00:35;;;;;;;16.05;3.08;;;;;;;7.40;73.67;98089.38;5105542;28;20092;-74
2021/10/22 07:03:01;;;;;;;6.68;1.15;;;;;;;7.47;72.60;98098.63;5086906;28;20024;-74
2021/10/22 07:05:50;;;;;;;5.78;1.15;;;;;;;7.63;73.32;98100.69;5105607;28;20022;-74
2021/10/22 07:08:15;;;;;;;8.95;1.70;;;;;;;7.84;73.21;98088.81;5086983;28;20039;-75
2021/10/22 07:10:41;;;;;;;9.38;1.30;;;;;;;8.27;71.31;98088.19;5105327;28;20024;-74
2021/10/22 07:13:07;;;;;;;8.32;1.00;;;;;;;8.58;71.56;98097.41;5105390;28;20020;-75
2021/10/22 07:15:33;;;;;;;9.90;1.13;;;;;;;8.77;72.22;98078.63;5105145;28;20357;-75
2021/10/22 07:18:02;;;;;;;5.47;1.50;;;;;;;9.05;70.92;98083.56;5120177;28;20051;-74
2021/10/22 07:20:30;;;;;;;5.78;1.23;;;;;;;9.33;70.58;98084.16;5104782;28;20020;-74
2021/10/22 07:23:17;;;;;;;7.32;1.40;;;;;;;9.80;69.67;98090.03;5105116;28;20035;-74
2021/10/22 07:25:42;;;;;;;8.00;1.30;;;;;;;10.31;69.91;98105.13;5104378;28;20039;-73
2021/10/22 07:28:12;;;;;;;11.45;1.63;;;;;;;10.45;69.50;98101.09;5104696;28;20031;-74
2021/10/22 07:30:41;;;;;;;4.65;1.33;;;;;;;10.42;69.94;98112.44;5104811;28;20024;-74
2021/10/22 07:33:06;;;;;;;5.43;1.10;;;;;;;10.30;67.77;98103.44;5104323;28;20061;-74
2021/10/22 07:35:31;;;;;;;5.50;1.67;;;;;;;10.43;67.40;98106.34;5104915;28;20028;-74
2021/10/22 07:37:57;;;;;;;9.63;1.27;;;;;;;10.77;66.92;98104.81;5104510;28;20467;-74
2021/10/22 07:40:22;;;;;;;6.22;1.25;;;;;;;11.43;66.71;98119.09;5104701;28;20046;-74
2021/10/22 07:42:48;;;;;;;5.18;0.93;;;;;;;12.00;65.61;98111.03;5104621;28;20088;-74
2021/10/22 07:45:13;;;;;;;4.55;1.35;;;;;;;12.26;64.02;98115.84;5104576;28;20020;-74
2021/10/22 07:47:39;;;;;;;9.07;1.10;;;;;;;12.77;63.98;98114.91;5104284;28;20027;-76
2021/10/22 07:50:07;;;;;;;5.90;1.17;;;;;;;13.28;62.42;98108.66;5104410;28;20028;-75
2021/10/22 07:52:33;;;;;;;7.13;1.48;;;;;;;13.72;62.13;98116.63;5104475;28;20020;-75
2021/10/22 07:54:59;;;;;;;2.88;0.77;;;;;;;14.27;61.11;98118.63;5104472;28;20020;-76
2021/10/22 07:57:28;;;;;;;3.67;1.00;;;;;;;14.58;60.15;98114.16;5104409;28;20024;-74
2021/10/22 07:59:55;;;;;;;7.18;1.25;;;;;;;14.87;57.62;98119.38;5085960;28;20027;-74
2021/10/22 08:02:21;;;;;;;3.92;1.00;;;;;;;15.04;55.48;98114.84;5119965;28;20027;-73
2021/10/22 08:04:49;;;;;;;4.60;1.00;;;;;;;15.26;54.85;98116.06;5085989;28;20027;-74
2021/10/22 08:07:16;;;;;;;4.05;1.13;;;;;;;15.41;55.95;98124.69;5104076;28;20020;-74
2021/10/22 08:09:42;;;;;;;4.40;1.20;;;;;;;15.56;54.68;98126.28;5104208;28;20032;-74
2021/10/22 08:12:08;;;;;;;4.93;1.15;;;;;;;15.89;54.06;98118.09;5104546;28;20034;-75
2021/10/22 08:14:35;;;;;;;6.75;1.52;;;;;;;16.10;53.03;98129.72;5104220;28;20391;-76
2021/10/22 08:17:00;;;;;;;9.80;1.25;;;;;;;16.45;54.88;98117.78;5085801;28;20024;-75
2021/10/22 08:19:27;;;;;;;7.60;1.05;;;;;;;16.99;52.90;98120.16;5103895;28;20024;-76
2021/10/22 08:22:25;;;;;;;5.47;1.33;;;;;;;17.31;53.29;98124.03;5104022;28;20024;-76
2021/10/22 08:24:40;;;;;;;6.63;1.30;;;;;;;17.56;52.42;98120.44;5103850;28;20048;-77
2021/10/22 08:27:07;;;;;;;5.05;1.00;;;;;;;17.98;48.97;98123.53;5103753;28;20028;-77
2021/10/22 08:29:33;;;;;;;3.67;0.95;;;;;;;17.60;49.55;98128.94;5103723;28;20073;-77
2021/10/22 08:31:58;;;;;;;4.28;0.95;;;;;;;16.57;51.55;98133.56;5103919;28;20028;-76
2021/10/22 08:34:23;;;;;;;5.03;1.13;;;;;;;15.44;53.29;98127.09;5103689;28;20365;-76
2021/10/22 08:36:49;;;;;;;5.97;1.30;;;;;;;14.50;54.63;98138.13;5103883;28;20012;-76
2021/10/22 08:39:14;;;;;;;5.32;1.15;;;;;;;14.20;55.69;98144.28;5103465;28;20550;-77
2021/10/22 08:41:40;;;;;;;6.65;0.88;;;;;;;14.30;55.03;98150.63;5103828;28;20039;-75
2021/10/22 08:44:08;;;;;;;7.78;1.40;;;;;;;14.63;53.87;98146.06;5104395;28;20024;-76
2021/10/22 08:46:34;;;;;;;7.97;1.23;;;;;;;14.40;52.21;98156.13;5110274;28;20024;-75
2021/10/22 08:49:02;;;;;;;9.75;1.10;;;;;;;13.66;55.24;98154.31;5110099;28;20098;-75
2021/10/22 08:51:28;;;;;;;11.10;2.45;;;;;;;13.02;55.56;98152.63;5110244;28;20020;-75
2021/10/22 08:53:53;;;;;;;3.53;1.00;;;;;;;12.44;55.54;98145.28;5110561;28;20367;-76
2021/10/22 08:56:20;;;;;;;6.75;1.25;;;;;;;13.01;57.55;98166.56;5110446;28;20020;-75
2021/10/22 08:58:46;;;;;;;7.13;1.17;;;;;;;13.85;57.45;98143.66;5091957;28;20028;-76
2021/10/22 09:01:11;;;;;;;10.98;1.50;;;;;;;14.02;56.09;98167.09;5126116;28;20028;-75
2021/10/22 09:03:38;;;;;;;6.22;1.30;;;;;;;13.59;56.28;98153.00;5091923;28;20028;-76
2021/10/22 09:06:09;;;;;;;8.98;1.25;;;;;;;13.57;58.65;98163.53;5110418;28;20076;-75
2021/10/22 09:08:37;;;;;;;6.93;1.48;;;;;;;13.31;57.96;98178.81;5126225;28;20031;-76
2021/10/22 09:11:05;;;;;;;4.65;0.90;;;;;;;13.71;57.64;98165.34;5110626;28;20020;-76
2021/10/22 09:13:33;;;;;;;4.35;1.15;;;;;;;14.43;59.04;98170.75;5110269;28;20016;-75
2021/10/22 09:16:00;;;;;;;3.30;1.33;;;;;;;15.28;58.73;98169.94;5126015;28;20024;-76
2021/10/22 09:18:51;;;;;;;3.80;0.90;;;;;;;15.86;55.72;98187.97;5109935;28;20391;-75
2021/10/22 09:21:33;;;;;;;2.92;1.08;;;;;;;15.85;51.49;98181.09;5110441;28;20043;-75
2021/10/22 09:24:31;;;;;;;4.43;1.38;;;;;;;15.51;54.97;98196.34;5110094;28;20055;-75
2021/10/22 09:26:57;;;;;;;3.85;1.00;;;;;;;15.27;55.53;98202.22;5109582;28;20038;-74
2021/10/22 09:29:28;;;;;;;9.75;1.08;;;;;;;14.79;56.13;98187.75;5110051;28;20044;-74
2021/10/22 09:31:56;;;;;;;7.47;1.30;;;;;;;14.79;56.20;98200.81;5110432;28;20016;-74
2021/10/22 09:34:36;;;;;;;5.72;1.00;;;;;;;15.11;56.77;98205.81;5109898;28;20028;-75
2021/10/22 09:37:04;;;;;;;5.97;0.90;;;;;;;15.28;55.28;98211.75;5110089;28;20027;-75
2021/10/22 09:39:36;;;;;;;3.92;1.05;;;;;;;15.06;55.53;98220.09;5109804;28;20131;-76
2021/10/22 09:42:02;;;;;;;5.60;1.08;;;;;;;14.80;53.74;98223.41;5091638;28;20107;-75
2021/10/22 09:44:37;;;;;;;5.38;0.80;;;;;;;14.92;55.15;98228.81;5091794;28;20075;-76
2021/10/22 09:47:05;;;;;;;6.00;0.98;;;;;;;15.65;52.82;98226.03;5110219;28;20092;-76
2021/10/22 09:49:32;;;;;;;7.30;1.60;;;;;;;16.43;50.59;98234.06;5109716;28;20032;-76
2021/10/22 09:52:00;;;;;;;8.90;1.02;;;;;;;15.56;50.48;98237.94;5110224;28;20082;-78
2021/10/22 09:54:31;;;;;;;5.28;1.00;;;;;;;14.34;49.33;98240.03;5125688;28;20104;-73
2021/10/22 09:57:07;;;;;;;5.90;1.15;;;;;;;13.57;51.55;98248.69;5106393;28;20097;-75
2021/10/22 09:59:33;;;;;;;4.93;1.23;;;;;;;14.34;52.24;98255.69;5122565;28;20073;-74
2021/10/22 10:02:01;;;;;;;8.82;1.58;;;;;;;14.05;52.11;98251.22;5106573;28;20028;-75
2021/10/22 10:04:28;;;;;;;5.10;0.98;;;;;;;13.84;52.41;98248.06;5088038;28;20224;-74
2021/10/22 10:06:55;;;;;;;9.27;1.20;;;;;;;13.73;51.92;98269.53;5121945;28;20043;-75
2021/10/22 10:09:21;;;;;;;4.28;0.80;;;;;;;13.84;49.56;98264.56;5106353;28;20080;-76
2021/10/22 10:11:49;;;;;;;4.93;0.90;;;;;;;14.20;50.85;98262.53;5106384;28;20030;-75
2021/10/22 10:14:16;;;;;;;3.75;1.00;;;;;;;13.86;50.78;98277.53;5106269;28;20031;-74
2021/10/22 10:16:44;;;;;;;6.90;1.27;;;;;;;13.28;53.17;98267.59;5106253;28;20048;-77
2021/10/22 10:19:18;;;;;;;4.47;1.55;;;;;;;12.93;55.61;98273.75;5105997;28;20141;-75
2021/10/22 10:21:47;;;;;;;9.63;1.83;;;;;;;13.93;55.22;98264.97;5106189;28;20031;-76
2021/10/22 10:24:16;;;;;;;5.15;1.17;;;;;;;14.35;53.11;98263.44;5105842;28;20051;-76
2021/10/22 10:26:42;;;;;;;6.88;1.23;;;;;;;13.63;53.44;98257.03;5106178;28;20028;-74
2021/10/22 10:29:26;;;;;;;5.25;1.15;;;;;;;13.90;50.38;98263.38;5105875;28;20031;-75
2021/10/22 10:31:59;;;;;;;5.55;0.98;;;;;;;13.55;52.25;98272.25;5087810;28;20062;-74
2021/10/22 10:34:29;;;;;;;6.18;1.10;;;;;;;13.09;53.42;98279.00;5105598;28;20024;-75
2021/10/22 10:36:58;;;;;;;4.90;1.65;;;;;;;13.78;53.64;98279.72;5105816;28;20492;-75
2021/10/22 10:39:43;;;;;;;3.53;1.10;;;;;;;14.75;52.13;98269.81;5105741;28;20024;-76
2021/10/22 10:42:19;;;;;;;8.20;1.50;;;;;;;15.49;51.01;98280.13;5105820;28;20020;-75
2021/10/22 10:44:46;;;;;;;4.18;0.90;;;;;;;15.94;45.07;98273.00;5105834;28;20016;-73
2021/10/22 10:47:58;;;;;;;5.68;1.17;;;;;;;16.22;48.82;98273.81;5105491;28;20112;-74
2021/10/22 10:51:02;;;;;;;6.97;1.00;;;;;;;16.58;46.79;98285.38;5105452;28;20044;-75
2021/10/22 10:53:36;;;;;;;5.40;1.10;;;;;;;16.98;45.12;98278.38;5087427;28;20024;-73
2021/10/22 10:56:05;;;;;;;4.38;0.90;;;;;;;16.70;45.70;98283.72;5087128;28;20024;-75
2021/10/22 10:58:44;;;;;;;9.70;1.33;;;;;;;16.57;45.54;98285.50;5105339;28;20182;-75
2021/10/22 11:01:36;;;;;;;6.00;0.95;;;;;;;16.69;46.06;98281.22;5105277;28;20024;-74
2021/10/22 11:04:02;;;;;;;3.38;1.20;;;;;;;17.26;48.84;98288.72;5104906;28;20031;-75
2021/10/22 11:06:28;;;;;;;4.45;1.00;;;;;;;18.22;45.72;98288.91;5105191;28;20095;-75
2021/10/22 11:08:53;;;;;;;3.05;0.90;;;;;;;18.93;42.54;98293.22;5104693;28;20029;-76
2021/10/22 11:11:28;;;;;;;1.70;1.08;;;;;;;18.88;42.12;98302.44;5120940;28;20042;-74
2021/10/22 11:13:55;;;;;;;5.28;1.00;;;;;;;19.08;42.47;98296.47;5105165;28;20250;-75
2021/10/22 11:16:38;;;;;;;4.50;0.80;;;;;;;18.99;40.76;98283.19;5104945;28;20027;-75
2021/10/22 11:19:08;;;;;;;5.95;1.02;;;;;;;18.85;42.16;98300.84;5120349;28;20020;-75
2021/10/22 11:21:39;;;;;;;2.85;1.00;;;;;;;18.21;40.49;98288.06;5104984;28;20024;-74
2021/10/22 11:24:07;;;;;;;4.13;0.90;;;;;;;17.88;42.49;98293.97;5120099;28;20147;-74
2021/10/22 11:26:33;;;;;;;2.88;0.82;;;;;;;17.74;41.63;98314.22;5104883;28;20065;-74
2021/10/22 11:29:01;;;;;;;7.90;1.38;;;;;;;16.95;44.55;98307.41;5104508;28;20036;-74
2021/10/22 11:31:40;;;;;;;5.80;1.10;;;;;;;15.78;46.97;98323.72;5086369;28;20031;-75
2021/10/22 11:34:28;;;;;;;4.95;0.90;;;;;;;14.50;47.42;98323.50;5104468;28;20040;-75
2021/10/22 11:37:00;;;;;;;6.05;0.88;;;;;;;13.47;48.49;98329.13;5104726;28;20019;-74
2021/10/22 11:39:28;;;;;;;4.55;1.33;;;;;;;12.65;51.41;98327.28;5104714;28;20023;-75
2021/10/22 11:42:04;;;;;;;2.72;0.73;;;;;;;12.12;51.84;98333.28;5120439;28;20035;-74
2021/10/22 11:44:30;;;;;;;6.65;0.90;;;;;;;11.50;51.02;98351.75;5104713;28;20073;-74